sensor_id;sensor_type;location;lat;lon;timestamp;pressure;altitude;pressure_sealevel;temperature
10058;BMP180;5068;51.286;7.518;2023-04-06T00:00:23;99594.00;;;3.30
10058;BMP180;5068;51.286;7.518;2023-04-06T00:01:55;99588.00;;;3.30
10058;BMP180;5068;51.286;7.518;2023-04-06T00:03:28;99592.00;;;3.40
10058;BMP180;5068;51.286;7.518;2023-04-06T00:05:02;99592.00;;;3.40
10058;BMP180;5068;51.286;7.518;2023-04-06T00:06:37;99583.00;;;3.50
10058;BMP180;5068;51.286;7.518;2023-04-06T00:08:10;99580.00;;;3.50
10058;BMP180;5068;51.286;7.518;2023-04-06T00:09:44;99589.00;;;3.40
10058;BMP180;5068;51.286;7.518;2023-04-06T00:11:16;99594.00;;;3.40
10058;BMP180;5068;51.286;7.518;2023-04-06T00:12:50;99588.00;;;3.40
10058;BMP180;5068;51.286;7.518;2023-04-06T00:14:22;99594.00;;;3.30
10058;BMP180;5068;51.286;7.518;2023-04-06T00:15:55;99576.00;;;3.30
10058;BMP180;5068;51.286;7.518;2023-04-06T00:17:28;99587.00;;;3.30
10058;BMP180;5068;51.286;7.518;2023-04-06T00:19:02;99579.00;;;3.30
10058;BMP180;5068;51.286;7.518;2023-04-06T00:20:35;99589.00;;;3.20
10058;BMP180;5068;51.286;7.518;2023-04-06T00:22:10;99580.00;;;3.20
10058;BMP180;5068;51.286;7.518;2023-04-06T00:23:42;99583.00;;;3.20
10058;BMP180;5068;51.286;7.518;2023-04-06T00:25:16;99583.00;;;3.10
10058;BMP180;5068;51.286;7.518;2023-04-06T00:26:48;99577.00;;;3.10
10058;BMP180;5068;51.286;7.518;2023-04-06T00:28:21;99581.00;;;3.10
10058;BMP180;5068;51.286;7.518;2023-04-06T00:29:57;99568.00;;;3.10
10058;BMP180;5068;51.286;7.518;2023-04-06T00:31:30;99582.00;;;3.00
10058;BMP180;5068;51.286;7.518;2023-04-06T00:33:03;99571.00;;;3.00
10058;BMP180;5068;51.286;7.518;2023-04-06T00:34:36;99569.00;;;3.00
10058;BMP180;5068;51.286;7.518;2023-04-06T00:36:10;99570.00;;;3.00
10058;BMP180;5068;51.286;7.518;2023-04-06T00:37:46;99573.00;;;3.00
10058;BMP180;5068;51.286;7.518;2023-04-06T00:39:20;99574.00;;;3.00
10058;BMP180;5068;51.286;7.518;2023-04-06T00:40:52;99577.00;;;2.90
10058;BMP180;5068;51.286;7.518;2023-04-06T00:42:25;99564.00;;;3.00
10058;BMP180;5068;51.286;7.518;2023-04-06T00:43:58;99565.00;;;3.00
10058;BMP180;5068;51.286;7.518;2023-04-06T00:45:32;99556.00;;;3.00
10058;BMP180;5068;51.286;7.518;2023-04-06T00:47:05;99556.00;;;3.00
10058;BMP180;5068;51.286;7.518;2023-04-06T00:48:38;99552.00;;;3.00
10058;BMP180;5068;51.286;7.518;2023-04-06T00:50:12;99550.00;;;2.90
10058;BMP180;5068;51.286;7.518;2023-04-06T00:51:45;99552.00;;;3.00
10058;BMP180;5068;51.286;7.518;2023-04-06T00:53:21;99536.00;;;2.90
10058;BMP180;5068;51.286;7.518;2023-04-06T00:54:54;99548.00;;;2.90
10058;BMP180;5068;51.286;7.518;2023-04-06T00:56:27;99546.00;;;2.90
10058;BMP180;5068;51.286;7.518;2023-04-06T00:58:00;99543.00;;;2.90
10058;BMP180;5068;51.286;7.518;2023-04-06T00:59:38;99536.00;;;2.90
10058;BMP180;5068;51.286;7.518;2023-04-06T01:01:16;99537.00;;;2.90
10058;BMP180;5068;51.286;7.518;2023-04-06T01:02:59;99545.00;;;2.90
10058;BMP180;5068;51.286;7.518;2023-04-06T01:04:39;99533.00;;;2.90
10058;BMP180;5068;51.286;7.518;2023-04-06T01:06:18;99538.00;;;2.80
10058;BMP180;5068;51.286;7.518;2023-04-06T01:07:59;99532.00;;;2.80
10058;BMP180;5068;51.286;7.518;2023-04-06T01:09:35;99527.00;;;2.80
10058;BMP180;5068;51.286;7.518;2023-04-06T01:11:13;99533.00;;;2.80
10058;BMP180;5068;51.286;7.518;2023-04-06T01:12:46;99536.00;;;2.80
10058;BMP180;5068;51.286;7.518;2023-04-06T01:14:27;99531.00;;;2.80
10058;BMP180;5068;51.286;7.518;2023-04-06T01:16:05;99528.00;;;2.80
10058;BMP180;5068;51.286;7.518;2023-04-06T01:17:54;99526.00;;;2.80
10058;BMP180;5068;51.286;7.518;2023-04-06T01:19:28;99522.00;;;2.80
10058;BMP180;5068;51.286;7.518;2023-04-06T01:21:01;99515.00;;;2.70
10058;BMP180;5068;51.286;7.518;2023-04-06T01:22:36;99525.00;;;2.70
10058;BMP180;5068;51.286;7.518;2023-04-06T01:24:10;99520.00;;;2.70
10058;BMP180;5068;51.286;7.518;2023-04-06T01:26:03;99514.00;;;2.70
10058;BMP180;5068;51.286;7.518;2023-04-06T01:27:37;99514.00;;;2.60
10058;BMP180;5068;51.286;7.518;2023-04-06T01:29:16;99514.00;;;2.60
10058;BMP180;5068;51.286;7.518;2023-04-06T01:30:49;99502.00;;;2.60
10058;BMP180;5068;51.286;7.518;2023-04-06T01:32:41;99507.00;;;2.60
10058;BMP180;5068;51.286;7.518;2023-04-06T01:34:20;99509.00;;;2.60
10058;BMP180;5068;51.286;7.518;2023-04-06T01:35:53;99505.00;;;2.60
10058;BMP180;5068;51.286;7.518;2023-04-06T01:37:25;99504.00;;;2.50
10058;BMP180;5068;51.286;7.518;2023-04-06T01:39:03;99505.00;;;2.50
10058;BMP180;5068;51.286;7.518;2023-04-06T01:40:40;99499.00;;;2.50
10058;BMP180;5068;51.286;7.518;2023-04-06T01:42:13;99503.00;;;2.50
10058;BMP180;5068;51.286;7.518;2023-04-06T01:43:48;99507.00;;;2.50
10058;BMP180;5068;51.286;7.518;2023-04-06T01:45:21;99497.00;;;2.50
10058;BMP180;5068;51.286;7.518;2023-04-06T01:46:56;99503.00;;;2.50
10058;BMP180;5068;51.286;7.518;2023-04-06T01:48:29;99493.00;;;2.50
10058;BMP180;5068;51.286;7.518;2023-04-06T01:50:02;99497.00;;;2.40
10058;BMP180;5068;51.286;7.518;2023-04-06T01:51:41;99496.00;;;2.50
10058;BMP180;5068;51.286;7.518;2023-04-06T01:53:17;99494.00;;;2.40
10058;BMP180;5068;51.286;7.518;2023-04-06T01:54:52;99495.00;;;2.40
10058;BMP180;5068;51.286;7.518;2023-04-06T01:56:38;99498.00;;;2.40
10058;BMP180;5068;51.286;7.518;2023-04-06T01:58:37;99492.00;;;2.40
10058;BMP180;5068;51.286;7.518;2023-04-06T02:00:13;99497.00;;;2.40
10058;BMP180;5068;51.286;7.518;2023-04-06T02:01:51;99502.00;;;2.40
10058;BMP180;5068;51.286;7.518;2023-04-06T02:03:24;99493.00;;;2.30
10058;BMP180;5068;51.286;7.518;2023-04-06T02:05:06;99491.00;;;2.30
10058;BMP180;5068;51.286;7.518;2023-04-06T02:06:41;99498.00;;;2.30
10058;BMP180;5068;51.286;7.518;2023-04-06T02:08:17;99483.00;;;2.20
10058;BMP180;5068;51.286;7.518;2023-04-06T02:09:54;99485.00;;;2.20
10058;BMP180;5068;51.286;7.518;2023-04-06T02:11:33;99491.00;;;2.20
10058;BMP180;5068;51.286;7.518;2023-04-06T02:13:07;99479.00;;;2.20
10058;BMP180;5068;51.286;7.518;2023-04-06T02:14:40;99484.00;;;2.20
10058;BMP180;5068;51.286;7.518;2023-04-06T02:16:13;99480.00;;;2.20
10058;BMP180;5068;51.286;7.518;2023-04-06T02:17:50;99485.00;;;2.20
10058;BMP180;5068;51.286;7.518;2023-04-06T02:19:22;99486.00;;;2.20
10058;BMP180;5068;51.286;7.518;2023-04-06T02:20:56;99488.00;;;2.20
10058;BMP180;5068;51.286;7.518;2023-04-06T02:22:29;99485.00;;;2.10
10058;BMP180;5068;51.286;7.518;2023-04-06T02:24:02;99490.00;;;2.20
10058;BMP180;5068;51.286;7.518;2023-04-06T02:25:37;99483.00;;;2.10
10058;BMP180;5068;51.286;7.518;2023-04-06T02:27:10;99488.00;;;2.10
10058;BMP180;5068;51.286;7.518;2023-04-06T02:28:43;99496.00;;;2.10
10058;BMP180;5068;51.286;7.518;2023-04-06T02:30:16;99475.00;;;2.10
10058;BMP180;5068;51.286;7.518;2023-04-06T02:31:48;99484.00;;;2.10
10058;BMP180;5068;51.286;7.518;2023-04-06T02:33:22;99488.00;;;2.10
10058;BMP180;5068;51.286;7.518;2023-04-06T02:34:55;99479.00;;;2.00
10058;BMP180;5068;51.286;7.518;2023-04-06T02:36:30;99477.00;;;2.10
10058;BMP180;5068;51.286;7.518;2023-04-06T02:38:03;99477.00;;;2.10
10058;BMP180;5068;51.286;7.518;2023-04-06T02:39:36;99484.00;;;2.10
10058;BMP180;5068;51.286;7.518;2023-04-06T02:41:13;99480.00;;;2.10
10058;BMP180;5068;51.286;7.518;2023-04-06T02:42:47;99477.00;;;2.00
10058;BMP180;5068;51.286;7.518;2023-04-06T02:44:23;99486.00;;;2.00
10058;BMP180;5068;51.286;7.518;2023-04-06T02:45:57;99482.00;;;2.00
10058;BMP180;5068;51.286;7.518;2023-04-06T02:47:30;99481.00;;;2.00
10058;BMP180;5068;51.286;7.518;2023-04-06T02:49:04;99474.00;;;2.10
10058;BMP180;5068;51.286;7.518;2023-04-06T02:50:39;99476.00;;;2.00
10058;BMP180;5068;51.286;7.518;2023-04-06T02:52:13;99483.00;;;2.00
10058;BMP180;5068;51.286;7.518;2023-04-06T02:53:46;99482.00;;;2.10
10058;BMP180;5068;51.286;7.518;2023-04-06T02:55:19;99469.00;;;2.10
10058;BMP180;5068;51.286;7.518;2023-04-06T02:56:55;99472.00;;;2.10
10058;BMP180;5068;51.286;7.518;2023-04-06T02:58:36;99476.00;;;2.10
10058;BMP180;5068;51.286;7.518;2023-04-06T03:00:11;99470.00;;;2.00
10058;BMP180;5068;51.286;7.518;2023-04-06T03:01:46;99466.00;;;2.00
10058;BMP180;5068;51.286;7.518;2023-04-06T03:03:19;99471.00;;;2.00
10058;BMP180;5068;51.286;7.518;2023-04-06T03:04:53;99467.00;;;2.00
10058;BMP180;5068;51.286;7.518;2023-04-06T03:06:33;99471.00;;;2.00
10058;BMP180;5068;51.286;7.518;2023-04-06T03:08:15;99470.00;;;1.90
10058;BMP180;5068;51.286;7.518;2023-04-06T03:09:50;99478.00;;;1.90
10058;BMP180;5068;51.286;7.518;2023-04-06T03:11:22;99471.00;;;1.90
10058;BMP180;5068;51.286;7.518;2023-04-06T03:12:58;99467.00;;;1.90
10058;BMP180;5068;51.286;7.518;2023-04-06T03:14:46;99466.00;;;1.80
10058;BMP180;5068;51.286;7.518;2023-04-06T03:16:20;99468.00;;;1.80
10058;BMP180;5068;51.286;7.518;2023-04-06T03:17:55;99460.00;;;1.80
10058;BMP180;5068;51.286;7.518;2023-04-06T03:19:39;99462.00;;;1.80
10058;BMP180;5068;51.286;7.518;2023-04-06T03:21:13;99465.00;;;1.80
10058;BMP180;5068;51.286;7.518;2023-04-06T03:22:52;99458.00;;;1.80
10058;BMP180;5068;51.286;7.518;2023-04-06T03:24:30;99462.00;;;1.70
10058;BMP180;5068;51.286;7.518;2023-04-06T03:26:03;99473.00;;;1.70
10058;BMP180;5068;51.286;7.518;2023-04-06T03:27:37;99468.00;;;1.70
10058;BMP180;5068;51.286;7.518;2023-04-06T03:29:12;99468.00;;;1.70
10058;BMP180;5068;51.286;7.518;2023-04-06T03:30:46;99470.00;;;1.70
10058;BMP180;5068;51.286;7.518;2023-04-06T03:32:22;99472.00;;;1.70
10058;BMP180;5068;51.286;7.518;2023-04-06T03:33:55;99463.00;;;1.70
10058;BMP180;5068;51.286;7.518;2023-04-06T03:35:40;99471.00;;;1.70
10058;BMP180;5068;51.286;7.518;2023-04-06T03:37:13;99468.00;;;1.70
10058;BMP180;5068;51.286;7.518;2023-04-06T03:38:52;99461.00;;;1.70
10058;BMP180;5068;51.286;7.518;2023-04-06T03:40:26;99467.00;;;1.70
10058;BMP180;5068;51.286;7.518;2023-04-06T03:41:59;99466.00;;;1.60
10058;BMP180;5068;51.286;7.518;2023-04-06T03:43:47;99461.00;;;1.60
10058;BMP180;5068;51.286;7.518;2023-04-06T03:45:23;99472.00;;;1.60
10058;BMP180;5068;51.286;7.518;2023-04-06T03:46:56;99462.00;;;1.60
10058;BMP180;5068;51.286;7.518;2023-04-06T03:48:30;99474.00;;;1.60
10058;BMP180;5068;51.286;7.518;2023-04-06T03:50:08;99460.00;;;1.60
10058;BMP180;5068;51.286;7.518;2023-04-06T03:51:41;99466.00;;;1.60
10058;BMP180;5068;51.286;7.518;2023-04-06T03:53:13;99465.00;;;1.60
10058;BMP180;5068;51.286;7.518;2023-04-06T03:54:47;99471.00;;;1.60
10058;BMP180;5068;51.286;7.518;2023-04-06T03:56:19;99471.00;;;1.60
10058;BMP180;5068;51.286;7.518;2023-04-06T03:57:53;99472.00;;;1.60
10058;BMP180;5068;51.286;7.518;2023-04-06T03:59:26;99470.00;;;1.70
10058;BMP180;5068;51.286;7.518;2023-04-06T04:01:01;99468.00;;;1.70
10058;BMP180;5068;51.286;7.518;2023-04-06T04:02:33;99464.00;;;1.70
10058;BMP180;5068;51.286;7.518;2023-04-06T04:04:06;99460.00;;;1.70
10058;BMP180;5068;51.286;7.518;2023-04-06T04:05:40;99464.00;;;1.70
10058;BMP180;5068;51.286;7.518;2023-04-06T04:07:13;99467.00;;;1.70
10058;BMP180;5068;51.286;7.518;2023-04-06T04:08:46;99468.00;;;1.70
10058;BMP180;5068;51.286;7.518;2023-04-06T04:10:19;99468.00;;;1.70
10058;BMP180;5068;51.286;7.518;2023-04-06T04:11:51;99465.00;;;1.70
10058;BMP180;5068;51.286;7.518;2023-04-06T04:13:25;99470.00;;;1.60
10058;BMP180;5068;51.286;7.518;2023-04-06T04:14:59;99472.00;;;1.60
10058;BMP180;5068;51.286;7.518;2023-04-06T04:16:34;99470.00;;;1.60
10058;BMP180;5068;51.286;7.518;2023-04-06T04:18:07;99472.00;;;1.50
10058;BMP180;5068;51.286;7.518;2023-04-06T04:19:40;99480.00;;;1.50
10058;BMP180;5068;51.286;7.518;2023-04-06T04:21:14;99468.00;;;1.50
10058;BMP180;5068;51.286;7.518;2023-04-06T04:22:47;99472.00;;;1.50
10058;BMP180;5068;51.286;7.518;2023-04-06T04:24:20;99473.00;;;1.50
10058;BMP180;5068;51.286;7.518;2023-04-06T04:25:54;99469.00;;;1.50
10058;BMP180;5068;51.286;7.518;2023-04-06T04:27:27;99479.00;;;1.50
10058;BMP180;5068;51.286;7.518;2023-04-06T04:29:01;99473.00;;;1.40
10058;BMP180;5068;51.286;7.518;2023-04-06T04:30:33;99468.00;;;1.40
10058;BMP180;5068;51.286;7.518;2023-04-06T04:32:13;99469.00;;;1.40
10058;BMP180;5068;51.286;7.518;2023-04-06T04:33:47;99468.00;;;1.40
10058;BMP180;5068;51.286;7.518;2023-04-06T04:35:26;99462.00;;;1.40
10058;BMP180;5068;51.286;7.518;2023-04-06T04:37:00;99471.00;;;1.40
10058;BMP180;5068;51.286;7.518;2023-04-06T04:38:53;99475.00;;;1.40
10058;BMP180;5068;51.286;7.518;2023-04-06T04:40:27;99466.00;;;1.40
10058;BMP180;5068;51.286;7.518;2023-04-06T04:42:09;99464.00;;;1.40
10058;BMP180;5068;51.286;7.518;2023-04-06T04:43:48;99467.00;;;1.40
10058;BMP180;5068;51.286;7.518;2023-04-06T04:45:26;99470.00;;;1.30
10058;BMP180;5068;51.286;7.518;2023-04-06T04:47:00;99469.00;;;1.30
10058;BMP180;5068;51.286;7.518;2023-04-06T04:48:45;99472.00;;;1.30
10058;BMP180;5068;51.286;7.518;2023-04-06T04:50:18;99473.00;;;1.30
10058;BMP180;5068;51.286;7.518;2023-04-06T04:51:55;99468.00;;;1.30
10058;BMP180;5068;51.286;7.518;2023-04-06T04:53:35;99464.00;;;1.30
10058;BMP180;5068;51.286;7.518;2023-04-06T04:55:20;99463.00;;;1.30
10058;BMP180;5068;51.286;7.518;2023-04-06T04:56:57;99469.00;;;1.30
10058;BMP180;5068;51.286;7.518;2023-04-06T04:58:42;99456.00;;;1.30
10058;BMP180;5068;51.286;7.518;2023-04-06T05:00:16;99470.00;;;1.30
10058;BMP180;5068;51.286;7.518;2023-04-06T05:01:50;99468.00;;;1.30
10058;BMP180;5068;51.286;7.518;2023-04-06T05:03:37;99470.00;;;1.30
10058;BMP180;5068;51.286;7.518;2023-04-06T05:05:17;99467.00;;;1.30
10058;BMP180;5068;51.286;7.518;2023-04-06T05:06:50;99468.00;;;1.30
10058;BMP180;5068;51.286;7.518;2023-04-06T05:08:24;99467.00;;;1.30
10058;BMP180;5068;51.286;7.518;2023-04-06T05:09:57;99468.00;;;1.30
10058;BMP180;5068;51.286;7.518;2023-04-06T05:11:33;99466.00;;;1.30
10058;BMP180;5068;51.286;7.518;2023-04-06T05:13:07;99463.00;;;1.30
10058;BMP180;5068;51.286;7.518;2023-04-06T05:14:41;99461.00;;;1.30
10058;BMP180;5068;51.286;7.518;2023-04-06T05:16:19;99469.00;;;1.30
10058;BMP180;5068;51.286;7.518;2023-04-06T05:17:51;99459.00;;;1.20
10058;BMP180;5068;51.286;7.518;2023-04-06T05:19:30;99470.00;;;1.20
10058;BMP180;5068;51.286;7.518;2023-04-06T05:21:05;99465.00;;;1.20
10058;BMP180;5068;51.286;7.518;2023-04-06T05:23:01;99467.00;;;1.20
10058;BMP180;5068;51.286;7.518;2023-04-06T05:24:35;99468.00;;;1.30
10058;BMP180;5068;51.286;7.518;2023-04-06T05:26:11;99458.00;;;1.30
10058;BMP180;5068;51.286;7.518;2023-04-06T05:27:44;99468.00;;;1.30
10058;BMP180;5068;51.286;7.518;2023-04-06T05:29:30;99470.00;;;1.30
10058;BMP180;5068;51.286;7.518;2023-04-06T05:31:04;99468.00;;;1.30
10058;BMP180;5068;51.286;7.518;2023-04-06T05:32:47;99466.00;;;1.30
10058;BMP180;5068;51.286;7.518;2023-04-06T05:34:21;99468.00;;;1.30
10058;BMP180;5068;51.286;7.518;2023-04-06T05:35:55;99468.00;;;1.30
10058;BMP180;5068;51.286;7.518;2023-04-06T05:37:30;99470.00;;;1.40
10058;BMP180;5068;51.286;7.518;2023-04-06T05:39:04;99469.00;;;1.40
10058;BMP180;5068;51.286;7.518;2023-04-06T05:40:43;99463.00;;;1.40
10058;BMP180;5068;51.286;7.518;2023-04-06T05:42:19;99470.00;;;1.40
10058;BMP180;5068;51.286;7.518;2023-04-06T05:43:57;99469.00;;;1.40
10058;BMP180;5068;51.286;7.518;2023-04-06T05:45:30;99472.00;;;1.40
10058;BMP180;5068;51.286;7.518;2023-04-06T05:47:04;99465.00;;;1.40
10058;BMP180;5068;51.286;7.518;2023-04-06T05:48:37;99464.00;;;1.40
10058;BMP180;5068;51.286;7.518;2023-04-06T05:50:11;99464.00;;;1.40
10058;BMP180;5068;51.286;7.518;2023-04-06T05:51:45;99467.00;;;1.50
10058;BMP180;5068;51.286;7.518;2023-04-06T05:53:20;99471.00;;;1.50
10058;BMP180;5068;51.286;7.518;2023-04-06T05:54:59;99457.00;;;1.50
10058;BMP180;5068;51.286;7.518;2023-04-06T05:56:33;99468.00;;;1.50
10058;BMP180;5068;51.286;7.518;2023-04-06T05:58:07;99466.00;;;1.50
10058;BMP180;5068;51.286;7.518;2023-04-06T05:59:40;99467.00;;;1.50
10058;BMP180;5068;51.286;7.518;2023-04-06T06:01:14;99457.00;;;1.50
10058;BMP180;5068;51.286;7.518;2023-04-06T06:02:50;99454.00;;;1.50
10058;BMP180;5068;51.286;7.518;2023-04-06T06:04:28;99466.00;;;1.50
10058;BMP180;5068;51.286;7.518;2023-04-06T06:06:02;99469.00;;;1.60
10058;BMP180;5068;51.286;7.518;2023-04-06T06:07:49;99463.00;;;1.60
10058;BMP180;5068;51.286;7.518;2023-04-06T06:09:24;99465.00;;;1.60
10058;BMP180;5068;51.286;7.518;2023-04-06T06:11:12;99468.00;;;1.60
10058;BMP180;5068;51.286;7.518;2023-04-06T06:12:46;99465.00;;;1.70
10058;BMP180;5068;51.286;7.518;2023-04-06T06:14:21;99465.00;;;1.70
10058;BMP180;5068;51.286;7.518;2023-04-06T06:15:54;99468.00;;;1.70
10058;BMP180;5068;51.286;7.518;2023-04-06T06:17:28;99464.00;;;1.70
10058;BMP180;5068;51.286;7.518;2023-04-06T06:19:01;99456.00;;;1.80
10058;BMP180;5068;51.286;7.518;2023-04-06T06:20:36;99455.00;;;1.80
10058;BMP180;5068;51.286;7.518;2023-04-06T06:22:10;99456.00;;;1.80
10058;BMP180;5068;51.286;7.518;2023-04-06T06:23:46;99454.00;;;1.80
10058;BMP180;5068;51.286;7.518;2023-04-06T06:25:25;99455.00;;;1.90
10058;BMP180;5068;51.286;7.518;2023-04-06T06:26:59;99454.00;;;1.90
10058;BMP180;5068;51.286;7.518;2023-04-06T06:28:34;99460.00;;;1.90
10058;BMP180;5068;51.286;7.518;2023-04-06T06:30:09;99454.00;;;1.90
10058;BMP180;5068;51.286;7.518;2023-04-06T06:31:45;99457.00;;;1.90
10058;BMP180;5068;51.286;7.518;2023-04-06T06:33:18;99460.00;;;2.00
10058;BMP180;5068;51.286;7.518;2023-04-06T06:34:54;99452.00;;;2.00
10058;BMP180;5068;51.286;7.518;2023-04-06T06:36:28;99453.00;;;2.00
10058;BMP180;5068;51.286;7.518;2023-04-06T06:38:02;99460.00;;;2.10
10058;BMP180;5068;51.286;7.518;2023-04-06T06:39:38;99460.00;;;2.10
10058;BMP180;5068;51.286;7.518;2023-04-06T06:41:13;99460.00;;;2.20
10058;BMP180;5068;51.286;7.518;2023-04-06T06:42:47;99450.00;;;2.20
10058;BMP180;5068;51.286;7.518;2023-04-06T06:44:26;99457.00;;;2.20
10058;BMP180;5068;51.286;7.518;2023-04-06T06:46:00;99451.00;;;2.30
10058;BMP180;5068;51.286;7.518;2023-04-06T06:47:33;99446.00;;;2.30
10058;BMP180;5068;51.286;7.518;2023-04-06T06:49:07;99446.00;;;2.30
10058;BMP180;5068;51.286;7.518;2023-04-06T06:50:40;99444.00;;;2.40
10058;BMP180;5068;51.286;7.518;2023-04-06T06:52:13;99451.00;;;2.40
10058;BMP180;5068;51.286;7.518;2023-04-06T06:53:48;99446.00;;;2.50
10058;BMP180;5068;51.286;7.518;2023-04-06T06:55:21;99443.00;;;2.50
10058;BMP180;5068;51.286;7.518;2023-04-06T06:56:56;99440.00;;;2.60
10058;BMP180;5068;51.286;7.518;2023-04-06T06:58:29;99447.00;;;2.60
10058;BMP180;5068;51.286;7.518;2023-04-06T07:00:06;99445.00;;;2.70
10058;BMP180;5068;51.286;7.518;2023-04-06T07:01:41;99445.00;;;2.70
10058;BMP180;5068;51.286;7.518;2023-04-06T07:03:15;99440.00;;;2.80
10058;BMP180;5068;51.286;7.518;2023-04-06T07:04:48;99442.00;;;2.80
10058;BMP180;5068;51.286;7.518;2023-04-06T07:06:22;99440.00;;;2.90
10058;BMP180;5068;51.286;7.518;2023-04-06T07:07:55;99438.00;;;3.00
10058;BMP180;5068;51.286;7.518;2023-04-06T07:09:30;99433.00;;;3.10
10058;BMP180;5068;51.286;7.518;2023-04-06T07:11:04;99440.00;;;3.20
10058;BMP180;5068;51.286;7.518;2023-04-06T07:12:39;99429.00;;;3.20
10058;BMP180;5068;51.286;7.518;2023-04-06T07:14:12;99434.00;;;3.30
10058;BMP180;5068;51.286;7.518;2023-04-06T07:15:46;99424.00;;;3.40
10058;BMP180;5068;51.286;7.518;2023-04-06T07:17:19;99426.00;;;3.40
10058;BMP180;5068;51.286;7.518;2023-04-06T07:18:53;99420.00;;;3.50
10058;BMP180;5068;51.286;7.518;2023-04-06T07:20:27;99434.00;;;3.60
10058;BMP180;5068;51.286;7.518;2023-04-06T07:22:01;99419.00;;;3.60
10058;BMP180;5068;51.286;7.518;2023-04-06T07:23:35;99420.00;;;3.70
10058;BMP180;5068;51.286;7.518;2023-04-06T07:25:09;99419.00;;;3.80
10058;BMP180;5068;51.286;7.518;2023-04-06T07:26:42;99420.00;;;3.80
10058;BMP180;5068;51.286;7.518;2023-04-06T07:28:17;99421.00;;;3.90
10058;BMP180;5068;51.286;7.518;2023-04-06T07:29:51;99420.00;;;3.90
10058;BMP180;5068;51.286;7.518;2023-04-06T07:31:25;99409.00;;;4.00
10058;BMP180;5068;51.286;7.518;2023-04-06T07:32:58;99424.00;;;4.10
10058;BMP180;5068;51.286;7.518;2023-04-06T07:34:33;99427.00;;;4.20
10058;BMP180;5068;51.286;7.518;2023-04-06T07:36:06;99419.00;;;4.30
10058;BMP180;5068;51.286;7.518;2023-04-06T07:37:39;99416.00;;;4.40
10058;BMP180;5068;51.286;7.518;2023-04-06T07:39:13;99420.00;;;4.40
10058;BMP180;5068;51.286;7.518;2023-04-06T07:40:46;99408.00;;;4.50
10058;BMP180;5068;51.286;7.518;2023-04-06T07:42:20;99404.00;;;4.60
10058;BMP180;5068;51.286;7.518;2023-04-06T07:44:02;99409.00;;;4.70
10058;BMP180;5068;51.286;7.518;2023-04-06T07:45:36;99410.00;;;4.80
10058;BMP180;5068;51.286;7.518;2023-04-06T07:47:10;99406.00;;;5.00
10058;BMP180;5068;51.286;7.518;2023-04-06T07:48:44;99411.00;;;5.00
10058;BMP180;5068;51.286;7.518;2023-04-06T07:50:17;99404.00;;;5.20
10058;BMP180;5068;51.286;7.518;2023-04-06T07:51:51;99396.00;;;5.30
10058;BMP180;5068;51.286;7.518;2023-04-06T07:53:25;99406.00;;;5.40
10058;BMP180;5068;51.286;7.518;2023-04-06T07:54:58;99401.00;;;5.60
10058;BMP180;5068;51.286;7.518;2023-04-06T07:56:32;99395.00;;;5.80
10058;BMP180;5068;51.286;7.518;2023-04-06T07:58:05;99402.00;;;5.90
10058;BMP180;5068;51.286;7.518;2023-04-06T07:59:39;99394.00;;;6.10
10058;BMP180;5068;51.286;7.518;2023-04-06T08:01:13;99392.00;;;6.30
10058;BMP180;5068;51.286;7.518;2023-04-06T08:02:46;99393.00;;;6.40
10058;BMP180;5068;51.286;7.518;2023-04-06T08:04:20;99393.00;;;6.60
10058;BMP180;5068;51.286;7.518;2023-04-06T08:05:53;99391.00;;;6.80
10058;BMP180;5068;51.286;7.518;2023-04-06T08:07:27;99384.00;;;7.00
10058;BMP180;5068;51.286;7.518;2023-04-06T08:09:00;99388.00;;;7.10
10058;BMP180;5068;51.286;7.518;2023-04-06T08:10:33;99388.00;;;7.30
10058;BMP180;5068;51.286;7.518;2023-04-06T08:12:07;99393.00;;;7.50
10058;BMP180;5068;51.286;7.518;2023-04-06T08:13:40;99385.00;;;7.70
10058;BMP180;5068;51.286;7.518;2023-04-06T08:15:15;99393.00;;;7.90
10058;BMP180;5068;51.286;7.518;2023-04-06T08:16:50;99392.00;;;8.00
10058;BMP180;5068;51.286;7.518;2023-04-06T08:18:23;99395.00;;;8.20
10058;BMP180;5068;51.286;7.518;2023-04-06T08:19:56;99390.00;;;8.40
10058;BMP180;5068;51.286;7.518;2023-04-06T08:21:29;99393.00;;;8.50
10058;BMP180;5068;51.286;7.518;2023-04-06T08:23:03;99387.00;;;8.70
10058;BMP180;5068;51.286;7.518;2023-04-06T08:24:36;99389.00;;;8.80
10058;BMP180;5068;51.286;7.518;2023-04-06T08:26:09;99391.00;;;9.00
10058;BMP180;5068;51.286;7.518;2023-04-06T08:27:43;99381.00;;;9.10
10058;BMP180;5068;51.286;7.518;2023-04-06T08:29:16;99391.00;;;9.20
10058;BMP180;5068;51.286;7.518;2023-04-06T08:30:51;99401.00;;;9.40
10058;BMP180;5068;51.286;7.518;2023-04-06T08:32:25;99388.00;;;9.50
10058;BMP180;5068;51.286;7.518;2023-04-06T08:33:59;99390.00;;;9.70
10058;BMP180;5068;51.286;7.518;2023-04-06T08:35:32;99382.00;;;9.80
10058;BMP180;5068;51.286;7.518;2023-04-06T08:37:06;99388.00;;;9.90
10058;BMP180;5068;51.286;7.518;2023-04-06T08:38:41;99377.00;;;10.10
10058;BMP180;5068;51.286;7.518;2023-04-06T08:40:15;99380.00;;;10.20
10058;BMP180;5068;51.286;7.518;2023-04-06T08:41:48;99385.00;;;10.30
10058;BMP180;5068;51.286;7.518;2023-04-06T08:43:26;99382.00;;;10.50
10058;BMP180;5068;51.286;7.518;2023-04-06T08:45:00;99376.00;;;10.60
10058;BMP180;5068;51.286;7.518;2023-04-06T08:46:35;99365.00;;;10.70
10058;BMP180;5068;51.286;7.518;2023-04-06T08:48:09;99374.00;;;10.90
10058;BMP180;5068;51.286;7.518;2023-04-06T08:49:45;99370.00;;;11.00
10058;BMP180;5068;51.286;7.518;2023-04-06T08:51:19;99378.00;;;11.20
10058;BMP180;5068;51.286;7.518;2023-04-06T08:52:53;99372.00;;;11.30
10058;BMP180;5068;51.286;7.518;2023-04-06T08:54:27;99377.00;;;11.40
10058;BMP180;5068;51.286;7.518;2023-04-06T08:56:02;99369.00;;;11.50
10058;BMP180;5068;51.286;7.518;2023-04-06T08:57:36;99383.00;;;11.70
10058;BMP180;5068;51.286;7.518;2023-04-06T08:59:10;99370.00;;;11.80
10058;BMP180;5068;51.286;7.518;2023-04-06T09:00:44;99379.00;;;11.90
10058;BMP180;5068;51.286;7.518;2023-04-06T09:02:19;99372.00;;;12.00
10058;BMP180;5068;51.286;7.518;2023-04-06T09:03:56;99379.00;;;12.10
10058;BMP180;5068;51.286;7.518;2023-04-06T09:05:30;99380.00;;;12.20
10058;BMP180;5068;51.286;7.518;2023-04-06T09:07:05;99370.00;;;12.30
10058;BMP180;5068;51.286;7.518;2023-04-06T09:08:40;99377.00;;;12.50
10058;BMP180;5068;51.286;7.518;2023-04-06T09:10:13;99373.00;;;12.60
10058;BMP180;5068;51.286;7.518;2023-04-06T09:11:49;99378.00;;;12.70
10058;BMP180;5068;51.286;7.518;2023-04-06T09:13:23;99379.00;;;12.70
10058;BMP180;5068;51.286;7.518;2023-04-06T09:14:58;99375.00;;;12.80
10058;BMP180;5068;51.286;7.518;2023-04-06T09:16:39;99375.00;;;12.90
10058;BMP180;5068;51.286;7.518;2023-04-06T09:18:28;99383.00;;;13.00
10058;BMP180;5068;51.286;7.518;2023-04-06T09:20:03;99377.00;;;13.10
10058;BMP180;5068;51.286;7.518;2023-04-06T09:21:36;99383.00;;;13.20
10058;BMP180;5068;51.286;7.518;2023-04-06T09:23:17;99369.00;;;13.20
10058;BMP180;5068;51.286;7.518;2023-04-06T09:24:53;99370.00;;;13.30